sensor_id;sensor_type;location;lat;lon;timestamp;P1;durP1;ratioP1;P2;durP2;ratioP2
70487;SDS011;57976;48.174;16.370;2024-03-07T00:00:47;14.90;;;8.80;;
70487;SDS011;57976;48.174;16.370;2024-03-07T00:02:53;14.30;;;7.50;;
70487;SDS011;57976;48.174;16.370;2024-03-07T00:04:59;14.30;;;7.90;;
70487;SDS011;57976;48.174;16.370;2024-03-07T00:07:04;13.70;;;7.50;;
70487;SDS011;57976;48.174;16.370;2024-03-07T00:09:08;16.60;;;8.90;;
70487;SDS011;57976;48.174;16.370;2024-03-07T00:11:13;14.40;;;7.30;;
70487;SDS011;57976;48.174;16.370;2024-03-07T00:13:18;12.60;;;6.90;;
70487;SDS011;57976;48.174;16.370;2024-03-07T00:15:22;14.30;;;7.60;;
70487;SDS011;57976;48.174;16.370;2024-03-07T00:17:27;15.20;;;8.00;;
70487;SDS011;57976;48.174;16.370;2024-03-07T00:19:32;14.80;;;7.80;;
70487;SDS011;57976;48.174;16.370;2024-03-07T00:21:37;15.40;;;8.50;;
70487;SDS011;57976;48.174;16.370;2024-03-07T00:23:42;14.50;;;8.30;;
70487;SDS011;57976;48.174;16.370;2024-03-07T00:25:46;16.40;;;8.10;;
70487;SDS011;57976;48.174;16.370;2024-03-07T00:27:51;14.30;;;7.50;;
70487;SDS011;57976;48.174;16.370;2024-03-07T00:29:56;14.80;;;7.70;;
70487;SDS011;57976;48.174;16.370;2024-03-07T00:32:01;14.50;;;7.50;;
70487;SDS011;57976;48.174;16.370;2024-03-07T00:34:06;14.50;;;8.10;;
70487;SDS011;57976;48.174;16.370;2024-03-07T00:36:21;14.70;;;8.20;;
70487;SDS011;57976;48.174;16.370;2024-03-07T00:38:26;13.80;;;7.30;;
70487;SDS011;57976;48.174;16.370;2024-03-07T00:40:31;15.50;;;8.20;;
70487;SDS011;57976;48.174;16.370;2024-03-07T00:42:36;15.60;;;8.60;;
70487;SDS011;57976;48.174;16.370;2024-03-07T00:44:40;15.50;;;8.50;;
70487;SDS011;57976;48.174;16.370;2024-03-07T00:46:45;14.60;;;8.20;;
70487;SDS011;57976;48.174;16.370;2024-03-07T00:48:50;15.90;;;8.50;;
70487;SDS011;57976;48.174;16.370;2024-03-07T00:50:55;14.60;;;8.30;;
70487;SDS011;57976;48.174;16.370;2024-03-07T00:53:00;15.90;;;8.00;;
70487;SDS011;57976;48.174;16.370;2024-03-07T00:55:08;15.60;;;8.30;;
70487;SDS011;57976;48.174;16.370;2024-03-07T00:57:14;14.40;;;8.10;;
70487;SDS011;57976;48.174;16.370;2024-03-07T00:59:19;14.20;;;7.70;;
70487;SDS011;57976;48.174;16.370;2024-03-07T01:01:23;15.30;;;7.80;;
70487;SDS011;57976;48.174;16.370;2024-03-07T01:03:28;13.80;;;7.90;;
70487;SDS011;57976;48.174;16.370;2024-03-07T01:05:36;15.60;;;7.40;;
70487;SDS011;57976;48.174;16.370;2024-03-07T01:07:41;14.80;;;8.20;;
70487;SDS011;57976;48.174;16.370;2024-03-07T01:09:46;15.80;;;7.40;;
70487;SDS011;57976;48.174;16.370;2024-03-07T01:11:51;14.70;;;7.50;;
70487;SDS011;57976;48.174;16.370;2024-03-07T01:13:56;14.00;;;7.30;;
70487;SDS011;57976;48.174;16.370;2024-03-07T01:16:01;15.50;;;7.70;;
70487;SDS011;57976;48.174;16.370;2024-03-07T01:18:06;14.60;;;7.50;;
70487;SDS011;57976;48.174;16.370;2024-03-07T01:20:12;13.80;;;7.50;;
70487;SDS011;57976;48.174;16.370;2024-03-07T01:22:17;14.10;;;7.20;;
70487;SDS011;57976;48.174;16.370;2024-03-07T01:24:24;14.70;;;7.20;;
70487;SDS011;57976;48.174;16.370;2024-03-07T01:26:30;13.80;;;6.60;;
70487;SDS011;57976;48.174;16.370;2024-03-07T01:28:36;15.40;;;8.60;;
70487;SDS011;57976;48.174;16.370;2024-03-07T01:30:41;12.70;;;7.00;;
70487;SDS011;57976;48.174;16.370;2024-03-07T01:32:46;14.40;;;7.30;;
70487;SDS011;57976;48.174;16.370;2024-03-07T01:34:51;15.00;;;7.50;;
70487;SDS011;57976;48.174;16.370;2024-03-07T01:36:58;13.60;;;6.70;;
70487;SDS011;57976;48.174;16.370;2024-03-07T01:39:03;14.20;;;7.00;;
70487;SDS011;57976;48.174;16.370;2024-03-07T01:41:08;15.20;;;7.10;;
70487;SDS011;57976;48.174;16.370;2024-03-07T01:43:16;13.20;;;6.90;;
70487;SDS011;57976;48.174;16.370;2024-03-07T01:45:20;13.70;;;7.40;;
70487;SDS011;57976;48.174;16.370;2024-03-07T01:47:30;14.90;;;7.50;;
70487;SDS011;57976;48.174;16.370;2024-03-07T01:49:35;13.60;;;7.50;;
70487;SDS011;57976;48.174;16.370;2024-03-07T01:51:44;13.10;;;6.90;;
70487;SDS011;57976;48.174;16.370;2024-03-07T01:53:50;14.10;;;7.30;;
70487;SDS011;57976;48.174;16.370;2024-03-07T01:55:59;14.00;;;6.30;;
70487;SDS011;57976;48.174;16.370;2024-03-07T01:58:04;14.50;;;7.10;;
70487;SDS011;57976;48.174;16.370;2024-03-07T02:00:12;14.80;;;7.50;;
70487;SDS011;57976;48.174;16.370;2024-03-07T02:02:23;14.30;;;7.30;;
70487;SDS011;57976;48.174;16.370;2024-03-07T02:04:28;14.60;;;7.10;;
70487;SDS011;57976;48.174;16.370;2024-03-07T02:06:33;14.80;;;7.90;;
70487;SDS011;57976;48.174;16.370;2024-03-07T02:08:39;13.40;;;6.90;;
70487;SDS011;57976;48.174;16.370;2024-03-07T02:10:44;14.60;;;7.00;;
70487;SDS011;57976;48.174;16.370;2024-03-07T02:12:57;14.70;;;7.70;;
70487;SDS011;57976;48.174;16.370;2024-03-07T02:15:02;14.30;;;7.30;;
70487;SDS011;57976;48.174;16.370;2024-03-07T02:17:07;15.70;;;8.10;;
70487;SDS011;57976;48.174;16.370;2024-03-07T02:19:13;16.50;;;8.90;;
70487;SDS011;57976;48.174;16.370;2024-03-07T02:21:18;15.60;;;8.40;;
70487;SDS011;57976;48.174;16.370;2024-03-07T02:23:23;16.80;;;8.70;;
70487;SDS011;57976;48.174;16.370;2024-03-07T02:25:28;16.00;;;8.50;;
70487;SDS011;57976;48.174;16.370;2024-03-07T02:27:33;17.80;;;9.50;;
70487;SDS011;57976;48.174;16.370;2024-03-07T02:29:38;16.80;;;9.10;;
70487;SDS011;57976;48.174;16.370;2024-03-07T02:31:42;17.90;;;9.00;;
70487;SDS011;57976;48.174;16.370;2024-03-07T02:33:47;18.10;;;9.20;;
70487;SDS011;57976;48.174;16.370;2024-03-07T02:35:52;17.60;;;9.50;;
70487;SDS011;57976;48.174;16.370;2024-03-07T02:37:56;17.20;;;9.60;;
70487;SDS011;57976;48.174;16.370;2024-03-07T02:40:01;17.40;;;9.10;;
70487;SDS011;57976;48.174;16.370;2024-03-07T02:42:06;18.70;;;9.20;;
70487;SDS011;57976;48.174;16.370;2024-03-07T02:44:11;18.40;;;9.40;;
70487;SDS011;57976;48.174;16.370;2024-03-07T02:46:16;19.20;;;9.30;;
70487;SDS011;57976;48.174;16.370;2024-03-07T02:48:24;18.80;;;10.10;;
70487;SDS011;57976;48.174;16.370;2024-03-07T02:50:29;17.70;;;9.40;;
70487;SDS011;57976;48.174;16.370;2024-03-07T02:52:34;15.60;;;8.60;;
70487;SDS011;57976;48.174;16.370;2024-03-07T02:54:40;16.40;;;8.00;;
70487;SDS011;57976;48.174;16.370;2024-03-07T02:56:45;17.60;;;9.10;;
70487;SDS011;57976;48.174;16.370;2024-03-07T02:58:50;16.90;;;8.60;;
70487;SDS011;57976;48.174;16.370;2024-03-07T03:00:57;17.30;;;9.70;;
70487;SDS011;57976;48.174;16.370;2024-03-07T03:03:03;18.50;;;8.80;;
70487;SDS011;57976;48.174;16.370;2024-03-07T03:05:10;16.70;;;8.50;;
70487;SDS011;57976;48.174;16.370;2024-03-07T03:07:16;16.30;;;8.20;;
70487;SDS011;57976;48.174;16.370;2024-03-07T03:09:24;17.20;;;9.00;;
70487;SDS011;57976;48.174;16.370;2024-03-07T03:11:28;16.80;;;8.70;;
70487;SDS011;57976;48.174;16.370;2024-03-07T03:13:33;15.10;;;7.80;;
70487;SDS011;57976;48.174;16.370;2024-03-07T03:15:40;16.90;;;8.40;;
70487;SDS011;57976;48.174;16.370;2024-03-07T03:17:45;16.90;;;8.50;;
70487;SDS011;57976;48.174;16.370;2024-03-07T03:19:50;17.00;;;8.30;;
70487;SDS011;57976;48.174;16.370;2024-03-07T03:21:55;16.40;;;8.10;;
70487;SDS011;57976;48.174;16.370;2024-03-07T03:23:59;15.90;;;7.20;;
70487;SDS011;57976;48.174;16.370;2024-03-07T03:26:07;15.60;;;8.40;;
70487;SDS011;57976;48.174;16.370;2024-03-07T03:28:12;15.10;;;7.10;;
70487;SDS011;57976;48.174;16.370;2024-03-07T03:30:17;14.40;;;7.50;;
70487;SDS011;57976;48.174;16.370;2024-03-07T03:32:23;15.30;;;7.80;;
70487;SDS011;57976;48.174;16.370;2024-03-07T03:34:30;15.10;;;7.50;;
70487;SDS011;57976;48.174;16.370;2024-03-07T03:36:35;15.70;;;7.70;;
70487;SDS011;57976;48.174;16.370;2024-03-07T03:38:40;16.00;;;7.50;;
70487;SDS011;57976;48.174;16.370;2024-03-07T03:40:44;14.50;;;6.70;;
70487;SDS011;57976;48.174;16.370;2024-03-07T03:42:50;15.50;;;7.10;;
70487;SDS011;57976;48.174;16.370;2024-03-07T03:45:00;13.30;;;6.30;;
70487;SDS011;57976;48.174;16.370;2024-03-07T03:47:05;14.20;;;7.00;;
70487;SDS011;57976;48.174;16.370;2024-03-07T03:49:13;13.80;;;6.50;;
70487;SDS011;57976;48.174;16.370;2024-03-07T03:51:21;13.70;;;7.00;;
70487;SDS011;57976;48.174;16.370;2024-03-07T03:53:28;14.80;;;7.60;;
70487;SDS011;57976;48.174;16.370;2024-03-07T03:55:36;14.40;;;7.10;;
70487;SDS011;57976;48.174;16.370;2024-03-07T03:57:42;15.60;;;7.10;;
70487;SDS011;57976;48.174;16.370;2024-03-07T03:59:47;13.90;;;7.10;;
70487;SDS011;57976;48.174;16.370;2024-03-07T04:01:52;15.50;;;6.90;;
70487;SDS011;57976;48.174;16.370;2024-03-07T04:03:57;14.50;;;6.70;;
70487;SDS011;57976;48.174;16.370;2024-03-07T04:06:02;13.30;;;6.60;;
70487;SDS011;57976;48.174;16.370;2024-03-07T04:08:07;14.90;;;7.10;;
70487;SDS011;57976;48.174;16.370;2024-03-07T04:10:15;13.40;;;6.10;;
70487;SDS011;57976;48.174;16.370;2024-03-07T04:12:20;12.80;;;5.90;;
70487;SDS011;57976;48.174;16.370;2024-03-07T04:14:26;13.40;;;6.80;;
70487;SDS011;57976;48.174;16.370;2024-03-07T04:16:32;13.40;;;6.70;;
70487;SDS011;57976;48.174;16.370;2024-03-07T04:18:37;13.50;;;6.40;;
70487;SDS011;57976;48.174;16.370;2024-03-07T04:20:41;13.80;;;6.50;;
70487;SDS011;57976;48.174;16.370;2024-03-07T04:22:49;13.70;;;6.80;;
70487;SDS011;57976;48.174;16.370;2024-03-07T04:24:56;15.80;;;7.20;;
70487;SDS011;57976;48.174;16.370;2024-03-07T04:27:01;13.10;;;6.40;;
70487;SDS011;57976;48.174;16.370;2024-03-07T04:29:06;14.00;;;7.10;;
70487;SDS011;57976;48.174;16.370;2024-03-07T04:31:11;14.80;;;7.40;;
70487;SDS011;57976;48.174;16.370;2024-03-07T04:33:16;14.50;;;7.60;;
70487;SDS011;57976;48.174;16.370;2024-03-07T04:35:21;13.30;;;6.70;;
70487;SDS011;57976;48.174;16.370;2024-03-07T04:37:28;14.00;;;6.50;;
70487;SDS011;57976;48.174;16.370;2024-03-07T04:39:33;13.70;;;6.20;;
70487;SDS011;57976;48.174;16.370;2024-03-07T04:41:38;13.70;;;6.70;;
70487;SDS011;57976;48.174;16.370;2024-03-07T04:43:42;13.30;;;6.20;;
70487;SDS011;57976;48.174;16.370;2024-03-07T04:45:48;14.50;;;6.60;;
70487;SDS011;57976;48.174;16.370;2024-03-07T04:47:52;14.60;;;6.50;;
70487;SDS011;57976;48.174;16.370;2024-03-07T04:49:58;11.80;;;5.50;;
70487;SDS011;57976;48.174;16.370;2024-03-07T04:52:06;13.40;;;6.90;;
70487;SDS011;57976;48.174;16.370;2024-03-07T04:54:11;13.30;;;6.60;;
70487;SDS011;57976;48.174;16.370;2024-03-07T04:56:19;12.70;;;6.60;;
70487;SDS011;57976;48.174;16.370;2024-03-07T04:58:24;12.80;;;5.90;;
70487;SDS011;57976;48.174;16.370;2024-03-07T05:00:28;12.70;;;6.00;;
70487;SDS011;57976;48.174;16.370;2024-03-07T05:02:33;13.20;;;6.20;;
70487;SDS011;57976;48.174;16.370;2024-03-07T05:04:38;12.60;;;6.60;;
70487;SDS011;57976;48.174;16.370;2024-03-07T05:06:42;13.00;;;6.80;;
70487;SDS011;57976;48.174;16.370;2024-03-07T05:08:47;14.00;;;7.20;;
70487;SDS011;57976;48.174;16.370;2024-03-07T05:10:52;13.20;;;6.50;;
70487;SDS011;57976;48.174;16.370;2024-03-07T05:12:57;11.70;;;5.60;;
70487;SDS011;57976;48.174;16.370;2024-03-07T05:15:01;12.70;;;7.30;;
70487;SDS011;57976;48.174;16.370;2024-03-07T05:17:08;15.80;;;6.90;;
70487;SDS011;57976;48.174;16.370;2024-03-07T05:19:13;13.20;;;6.40;;
70487;SDS011;57976;48.174;16.370;2024-03-07T05:21:18;13.20;;;6.70;;
70487;SDS011;57976;48.174;16.370;2024-03-07T05:23:22;13.00;;;6.40;;
70487;SDS011;57976;48.174;16.370;2024-03-07T05:25:27;13.80;;;6.40;;
70487;SDS011;57976;48.174;16.370;2024-03-07T05:27:32;14.90;;;6.40;;
70487;SDS011;57976;48.174;16.370;2024-03-07T05:29:36;11.50;;;5.80;;
70487;SDS011;57976;48.174;16.370;2024-03-07T05:31:41;12.50;;;6.00;;
70487;SDS011;57976;48.174;16.370;2024-03-07T05:33:47;14.40;;;7.40;;
70487;SDS011;57976;48.174;16.370;2024-03-07T05:35:52;13.70;;;7.10;;
70487;SDS011;57976;48.174;16.370;2024-03-07T05:37:56;12.90;;;7.50;;
70487;SDS011;57976;48.174;16.370;2024-03-07T05:40:02;13.60;;;7.80;;
70487;SDS011;57976;48.174;16.370;2024-03-07T05:42:08;13.40;;;6.80;;
70487;SDS011;57976;48.174;16.370;2024-03-07T05:44:12;13.10;;;7.10;;
70487;SDS011;57976;48.174;16.370;2024-03-07T05:46:17;14.80;;;6.60;;
70487;SDS011;57976;48.174;16.370;2024-03-07T05:48:24;14.00;;;7.20;;
70487;SDS011;57976;48.174;16.370;2024-03-07T05:50:32;15.40;;;7.50;;
70487;SDS011;57976;48.174;16.370;2024-03-07T05:52:38;15.30;;;7.50;;
70487;SDS011;57976;48.174;16.370;2024-03-07T05:54:43;14.10;;;6.80;;
70487;SDS011;57976;48.174;16.370;2024-03-07T05:56:47;13.90;;;6.70;;
70487;SDS011;57976;48.174;16.370;2024-03-07T05:58:52;14.20;;;7.30;;
70487;SDS011;57976;48.174;16.370;2024-03-07T06:00:58;13.70;;;7.00;;
70487;SDS011;57976;48.174;16.370;2024-03-07T06:03:03;13.00;;;6.40;;
70487;SDS011;57976;48.174;16.370;2024-03-07T06:05:08;13.40;;;6.90;;
70487;SDS011;57976;48.174;16.370;2024-03-07T06:07:13;14.50;;;6.90;;
70487;SDS011;57976;48.174;16.370;2024-03-07T06:09:18;13.60;;;6.60;;
70487;SDS011;57976;48.174;16.370;2024-03-07T06:11:23;13.60;;;6.50;;
70487;SDS011;57976;48.174;16.370;2024-03-07T06:13:28;13.50;;;6.00;;
70487;SDS011;57976;48.174;16.370;2024-03-07T06:15:32;12.90;;;6.70;;
70487;SDS011;57976;48.174;16.370;2024-03-07T06:17:43;13.00;;;6.30;;
70487;SDS011;57976;48.174;16.370;2024-03-07T06:19:51;13.50;;;6.30;;
70487;SDS011;57976;48.174;16.370;2024-03-07T06:21:56;14.80;;;6.90;;
70487;SDS011;57976;48.174;16.370;2024-03-07T06:24:00;13.50;;;6.30;;
70487;SDS011;57976;48.174;16.370;2024-03-07T06:26:09;13.30;;;6.60;;
70487;SDS011;57976;48.174;16.370;2024-03-07T06:28:18;14.30;;;7.10;;
70487;SDS011;57976;48.174;16.370;2024-03-07T06:30:23;13.80;;;6.40;;
70487;SDS011;57976;48.174;16.370;2024-03-07T06:32:28;12.50;;;6.00;;
70487;SDS011;57976;48.174;16.370;2024-03-07T06:34:33;13.80;;;6.90;;
70487;SDS011;57976;48.174;16.370;2024-03-07T06:36:38;15.50;;;7.00;;
70487;SDS011;57976;48.174;16.370;2024-03-07T06:38:43;13.60;;;6.90;;
70487;SDS011;57976;48.174;16.370;2024-03-07T06:40:51;13.30;;;6.50;;
70487;SDS011;57976;48.174;16.370;2024-03-07T06:42:56;13.20;;;7.20;;
70487;SDS011;57976;48.174;16.370;2024-03-07T06:45:05;13.50;;;7.20;;
70487;SDS011;57976;48.174;16.370;2024-03-07T06:47:10;13.10;;;6.30;;
70487;SDS011;57976;48.174;16.370;2024-03-07T06:49:15;15.20;;;7.60;;
70487;SDS011;57976;48.174;16.370;2024-03-07T06:51:20;13.10;;;6.30;;
70487;SDS011;57976;48.174;16.370;2024-03-07T06:53:25;14.20;;;6.50;;
70487;SDS011;57976;48.174;16.370;2024-03-07T06:55:33;13.10;;;6.50;;
70487;SDS011;57976;48.174;16.370;2024-03-07T06:57:38;13.30;;;6.20;;
70487;SDS011;57976;48.174;16.370;2024-03-07T06:59:43;13.80;;;6.90;;
70487;SDS011;57976;48.174;16.370;2024-03-07T07:01:49;12.40;;;6.80;;
70487;SDS011;57976;48.174;16.370;2024-03-07T07:03:57;13.60;;;6.70;;
70487;SDS011;57976;48.174;16.370;2024-03-07T07:06:01;16.80;;;6.80;;
70487;SDS011;57976;48.174;16.370;2024-03-07T07:08:07;14.50;;;6.10;;
70487;SDS011;57976;48.174;16.370;2024-03-07T07:10:12;13.00;;;6.90;;
70487;SDS011;57976;48.174;16.370;2024-03-07T07:12:17;14.90;;;7.40;;
70487;SDS011;57976;48.174;16.370;2024-03-07T07:14:22;11.60;;;5.60;;
70487;SDS011;57976;48.174;16.370;2024-03-07T07:16:27;14.70;;;6.50;;
70487;SDS011;57976;48.174;16.370;2024-03-07T07:18:32;12.70;;;6.70;;
70487;SDS011;57976;48.174;16.370;2024-03-07T07:20:38;13.30;;;6.10;;
70487;SDS011;57976;48.174;16.370;2024-03-07T07:22:43;15.00;;;6.90;;
70487;SDS011;57976;48.174;16.370;2024-03-07T07:24:48;14.10;;;6.60;;
70487;SDS011;57976;48.174;16.370;2024-03-07T07:26:53;14.20;;;6.90;;
70487;SDS011;57976;48.174;16.370;2024-03-07T07:29:01;13.40;;;6.80;;
70487;SDS011;57976;48.174;16.370;2024-03-07T07:31:06;13.60;;;6.70;;
70487;SDS011;57976;48.174;16.370;2024-03-07T07:33:10;13.00;;;6.50;;
70487;SDS011;57976;48.174;16.370;2024-03-07T07:35:18;15.20;;;6.70;;
70487;SDS011;57976;48.174;16.370;2024-03-07T07:37:24;15.20;;;7.00;;
70487;SDS011;57976;48.174;16.370;2024-03-07T07:39:31;14.20;;;7.40;;
70487;SDS011;57976;48.174;16.370;2024-03-07T07:41:39;13.30;;;6.70;;
70487;SDS011;57976;48.174;16.370;2024-03-07T07:43:44;14.00;;;6.60;;
70487;SDS011;57976;48.174;16.370;2024-03-07T07:45:48;14.40;;;6.90;;
70487;SDS011;57976;48.174;16.370;2024-03-07T07:47:54;13.00;;;6.40;;
70487;SDS011;57976;48.174;16.370;2024-03-07T07:50:02;14.30;;;7.60;;
70487;SDS011;57976;48.174;16.370;2024-03-07T07:52:08;16.80;;;7.00;;
70487;SDS011;57976;48.174;16.370;2024-03-07T07:54:12;13.20;;;6.60;;
70487;SDS011;57976;48.174;16.370;2024-03-07T07:56:20;12.50;;;6.60;;
70487;SDS011;57976;48.174;16.370;2024-03-07T07:58:28;13.50;;;6.70;;
70487;SDS011;57976;48.174;16.370;2024-03-07T08:00:33;14.30;;;6.20;;
70487;SDS011;57976;48.174;16.370;2024-03-07T08:02:39;15.20;;;7.10;;
70487;SDS011;57976;48.174;16.370;2024-03-07T08:04:44;14.60;;;7.20;;
70487;SDS011;57976;48.174;16.370;2024-03-07T08:06:49;15.20;;;7.00;;
70487;SDS011;57976;48.174;16.370;2024-03-07T08:08:55;12.90;;;6.20;;
70487;SDS011;57976;48.174;16.370;2024-03-07T08:11:00;12.50;;;6.90;;
70487;SDS011;57976;48.174;16.370;2024-03-07T08:13:05;12.80;;;6.10;;
70487;SDS011;57976;48.174;16.370;2024-03-07T08:15:15;12.00;;;5.90;;
70487;SDS011;57976;48.174;16.370;2024-03-07T08:17:20;14.30;;;7.20;;
70487;SDS011;57976;48.174;16.370;2024-03-07T08:19:25;14.10;;;6.70;;
70487;SDS011;57976;48.174;16.370;2024-03-07T08:21:31;13.50;;;6.10;;
70487;SDS011;57976;48.174;16.370;2024-03-07T08:23:36;12.60;;;6.10;;
70487;SDS011;57976;48.174;16.370;2024-03-07T08:25:41;11.60;;;5.50;;
70487;SDS011;57976;48.174;16.370;2024-03-07T08:27:47;12.70;;;6.10;;
70487;SDS011;57976;48.174;16.370;2024-03-07T08:29:54;12.30;;;5.60;;
70487;SDS011;57976;48.174;16.370;2024-03-07T08:32:06;14.00;;;6.50;;
70487;SDS011;57976;48.174;16.370;2024-03-07T08:34:11;12.60;;;6.50;;
70487;SDS011;57976;48.174;16.370;2024-03-07T08:36:16;13.90;;;7.20;;
70487;SDS011;57976;48.174;16.370;2024-03-07T08:38:21;12.00;;;5.50;;
70487;SDS011;57976;48.174;16.370;2024-03-07T08:40:26;13.50;;;7.00;;
70487;SDS011;57976;48.174;16.370;2024-03-07T08:42:35;13.20;;;6.90;;
70487;SDS011;57976;48.174;16.370;2024-03-07T08:44:40;13.70;;;6.60;;
70487;SDS011;57976;48.174;16.370;2024-03-07T08:46:47;12.00;;;6.00;;
70487;SDS011;57976;48.174;16.370;2024-03-07T08:48:52;13.20;;;5.70;;
70487;SDS011;57976;48.174;16.370;2024-03-07T08:50:57;14.00;;;6.10;;
70487;SDS011;57976;48.174;16.370;2024-03-07T08:53:02;13.60;;;6.20;;
70487;SDS011;57976;48.174;16.370;2024-03-07T08:55:08;12.10;;;5.90;;
70487;SDS011;57976;48.174;16.370;2024-03-07T08:57:15;13.50;;;6.20;;
70487;SDS011;57976;48.174;16.370;2024-03-07T08:59:20;13.50;;;6.30;;
70487;SDS011;57976;48.174;16.370;2024-03-07T09:01:27;11.60;;;6.00;;
70487;SDS011;57976;48.174;16.370;2024-03-07T09:03:32;13.80;;;7.00;;
70487;SDS011;57976;48.174;16.370;2024-03-07T09:05:37;12.70;;;6.20;;
70487;SDS011;57976;48.174;16.370;2024-03-07T09:07:42;15.50;;;6.60;;
70487;SDS011;57976;48.174;16.370;2024-03-07T09:09:49;12.50;;;6.00;;
70487;SDS011;57976;48.174;16.370;2024-03-07T09:11:55;13.30;;;6.40;;
70487;SDS011;57976;48.174;16.370;2024-03-07T09:14:00;13.30;;;5.30;;
70487;SDS011;57976;48.174;16.370;2024-03-07T09:16:05;13.00;;;6.10;;
70487;SDS011;57976;48.174;16.370;2024-03-07T09:18:10;13.80;;;6.30;;
70487;SDS011;57976;48.174;16.370;2024-03-07T09:20:15;12.00;;;6.00;;
70487;SDS011;57976;48.174;16.370;2024-03-07T09:22:23;12.80;;;7.00;;
70487;SDS011;57976;48.174;16.370;2024-03-07T09:24:29;15.70;;;6.90;;
70487;SDS011;57976;48.174;16.370;2024-03-07T09:26:34;13.90;;;6.90;;
70487;SDS011;57976;48.174;16.370;2024-03-07T09:28:39;15.50;;;7.30;;
70487;SDS011;57976;48.174;16.370;2024-03-07T09:30:45;13.30;;;6.90;;
70487;SDS011;57976;48.174;16.370;2024-03-07T09:32:50;15.30;;;6.90;;
70487;SDS011;57976;48.174;16.370;2024-03-07T09:34:55;13.70;;;6.60;;
70487;SDS011;57976;48.174;16.370;2024-03-07T09:37:00;14.30;;;5.80;;
70487;SDS011;57976;48.174;16.370;2024-03-07T09:39:04;12.60;;;6.20;;
70487;SDS011;57976;48.174;16.370;2024-03-07T09:41:09;14.10;;;6.90;;
70487;SDS011;57976;48.174;16.370;2024-03-07T09:43:17;12.80;;;6.70;;
70487;SDS011;57976;48.174;16.370;2024-03-07T09:45:28;15.90;;;8.20;;
70487;SDS011;57976;48.174;16.370;2024-03-07T09:47:35;12.90;;;6.50;;
70487;SDS011;57976;48.174;16.370;2024-03-07T09:49:40;14.80;;;7.10;;
70487;SDS011;57976;48.174;16.370;2024-03-07T09:51:45;13.20;;;6.10;;
70487;SDS011;57976;48.174;16.370;2024-03-07T09:53:56;13.60;;;6.20;;
70487;SDS011;57976;48.174;16.370;2024-03-07T09:56:01;13.70;;;5.80;;
70487;SDS011;57976;48.174;16.370;2024-03-07T09:58:07;15.00;;;6.50;;
70487;SDS011;57976;48.174;16.370;2024-03-07T10:00:14;14.60;;;6.70;;
70487;SDS011;57976;48.174;16.370;2024-03-07T10:02:21;14.10;;;6.70;;
70487;SDS011;57976;48.174;16.370;2024-03-07T10:04:35;14.30;;;7.30;;
70487;SDS011;57976;48.174;16.370;2024-03-07T10:06:48;16.00;;;8.00;;
70487;SDS011;57976;48.174;16.370;2024-03-07T10:08:54;14.80;;;7.60;;
70487;SDS011;57976;48.174;16.370;2024-03-07T10:11:00;15.50;;;7.50;;
70487;SDS011;57976;48.174;16.370;2024-03-07T10:13:05;16.20;;;8.00;;
70487;SDS011;57976;48.174;16.370;2024-03-07T10:15:10;15.40;;;8.10;;
70487;SDS011;57976;48.174;16.370;2024-03-07T10:17:15;15.10;;;7.90;;
70487;SDS011;57976;48.174;16.370;2024-03-07T10:19:20;16.00;;;7.90;;
70487;SDS011;57976;48.174;16.370;2024-03-07T10:21:26;15.80;;;7.30;;
70487;SDS011;57976;48.174;16.370;2024-03-07T10:23:30;16.50;;;7.80;;
70487;SDS011;57976;48.174;16.370;2024-03-07T10:25:35;16.80;;;8.70;;
70487;SDS011;57976;48.174;16.370;2024-03-07T10:27:40;16.90;;;7.70;;
70487;SDS011;57976;48.174;16.370;2024-03-07T10:29:46;17.40;;;8.90;;
70487;SDS011;57976;48.174;16.370;2024-03-07T10:31:51;17.40;;;9.20;;
70487;SDS011;57976;48.174;16.370;2024-03-07T10:34:07;16.60;;;8.60;;
70487;SDS011;57976;48.174;16.370;2024-03-07T10:36:12;16.60;;;8.20;;
70487;SDS011;57976;48.174;16.370;2024-03-07T10:38:17;16.10;;;8.30;;
70487;SDS011;57976;48.174;16.370;2024-03-07T10:40:22;18.10;;;9.40;;
70487;SDS011;57976;48.174;16.370;2024-03-07T10:42:28;16.50;;;8.40;;
70487;SDS011;57976;48.174;16.370;2024-03-07T10:44:35;15.90;;;8.50;;
70487;SDS011;57976;48.174;16.370;2024-03-07T10:46:46;16.60;;;8.60;;
70487;SDS011;57976;48.174;16.370;2024-03-07T10:48:57;16.30;;;8.20;;
70487;SDS011;57976;48.174;16.370;2024-03-07T10:51:08;16.80;;;8.30;;
70487;SDS011;57976;48.174;16.370;2024-03-07T10:53:21;17.00;;;8.60;;
70487;SDS011;57976;48.174;16.370;2024-03-07T10:55:34;17.60;;;8.80;;
70487;SDS011;57976;48.174;16.370;2024-03-07T10:57:47;16.70;;;8.40;;
70487;SDS011;57976;48.174;16.370;2024-03-07T10:59:59;17.50;;;9.00;;
70487;SDS011;57976;48.174;16.370;2024-03-07T11:02:11;16.90;;;8.10;;
70487;SDS011;57976;48.174;16.370;2024-03-07T11:04:24;16.40;;;8.70;;
70487;SDS011;57976;48.174;16.370;2024-03-07T11:06:29;17.90;;;9.20;;
70487;SDS011;57976;48.174;16.370;2024-03-07T11:08:35;16.60;;;8.80;;
70487;SDS011;57976;48.174;16.370;2024-03-07T11:10:41;18.30;;;8.70;;
70487;SDS011;57976;48.174;16.370;2024-03-07T11:12:47;17.60;;;9.60;;
70487;SDS011;57976;48.174;16.370;2024-03-07T11:14:53;18.00;;;9.40;;
70487;SDS011;57976;48.174;16.370;2024-03-07T11:16:59;19.40;;;9.70;;
70487;SDS011;57976;48.174;16.370;2024-03-07T11:19:21;16.80;;;8.20;;
70487;SDS011;57976;48.174;16.370;2024-03-07T11:21:41;18.10;;;9.20;;
70487;SDS011;57976;48.174;16.370;2024-03-07T11:23:46;18.00;;;8.80;;
70487;SDS011;57976;48.174;16.370;2024-03-07T11:25:52;18.40;;;9.30;;
70487;SDS011;57976;48.174;16.370;2024-03-07T11:27:58;20.60;;;9.40;;
70487;SDS011;57976;48.174;16.370;2024-03-07T11:30:07;18.60;;;9.80;;
70487;SDS011;57976;48.174;16.370;2024-03-07T11:32:13;18.00;;;8.80;;
70487;SDS011;57976;48.174;16.370;2024-03-07T11:34:21;19.80;;;10.50;;
70487;SDS011;57976;48.174;16.370;2024-03-07T11:36:43;20.10;;;9.50;;
70487;SDS011;57976;48.174;16.370;2024-03-07T11:38:48;18.80;;;8.10;;
70487;SDS011;57976;48.174;16.370;2024-03-07T11:40:53;19.90;;;9.60;;
70487;SDS011;57976;48.174;16.370;2024-03-07T11:43:02;18.90;;;8.90;;
70487;SDS011;57976;48.174;16.370;2024-03-07T11:45:08;19.70;;;9.90;;
70487;SDS011;57976;48.174;16.370;2024-03-07T11:47:12;18.20;;;8.50;;
70487;SDS011;57976;48.174;16.370;2024-03-07T11:49:19;19.40;;;9.70;;
70487;SDS011;57976;48.174;16.370;2024-03-07T11:51:23;21.30;;;10.70;;
70487;SDS011;57976;48.174;16.370;2024-03-07T11:53:28;20.50;;;9.90;;
70487;SDS011;57976;48.174;16.370;2024-03-07T11:55:36;19.70;;;10.00;;
70487;SDS011;57976;48.174;16.370;2024-03-07T11:57:42;20.50;;;10.90;;
70487;SDS011;57976;48.174;16.370;2024-03-07T11:59:48;22.70;;;10.50;;
70487;SDS011;57976;48.174;16.370;2024-03-07T12:01:53;21.30;;;9.10;;
70487;SDS011;57976;48.174;16.370;2024-03-07T12:03:57;20.70;;;9.70;;
70487;SDS011;57976;48.174;16.370;2024-03-07T12:06:02;19.60;;;10.50;;
70487;SDS011;57976;48.174;16.370;2024-03-07T12:08:08;20.90;;;10.40;;
70487;SDS011;57976;48.174;16.370;2024-03-07T12:10:15;17.90;;;9.10;;
70487;SDS011;57976;48.174;16.370;2024-03-07T12:12:20;18.90;;;9.90;;
70487;SDS011;57976;48.174;16.370;2024-03-07T12:14:25;20.30;;;9.80;;
70487;SDS011;57976;48.174;16.370;2024-03-07T12:16:30;20.70;;;10.20;;